sensor_id;sensor_type;location;lat;lon;timestamp;P1;durP1;ratioP1;P2;durP2;ratioP2
41343;SDS011;27089;50.022;7.604;2023-08-08T00:01:31;2.60;;;1.83;;
41343;SDS011;27089;50.022;7.604;2023-08-08T00:03:59;2.97;;;1.90;;
41343;SDS011;27089;50.022;7.604;2023-08-08T00:06:26;5.03;;;2.20;;
41343;SDS011;27089;50.022;7.604;2023-08-08T00:08:53;6.07;;;1.83;;
41343;SDS011;27089;50.022;7.604;2023-08-08T00:11:20;3.43;;;2.13;;
41343;SDS011;27089;50.022;7.604;2023-08-08T00:13:47;4.17;;;1.70;;
41343;SDS011;27089;50.022;7.604;2023-08-08T00:16:16;3.47;;;1.90;;
41343;SDS011;27089;50.022;7.604;2023-08-08T00:18:42;3.73;;;1.73;;
41343;SDS011;27089;50.022;7.604;2023-08-08T00:21:10;2.87;;;1.90;;
41343;SDS011;27089;50.022;7.604;2023-08-08T00:23:37;2.97;;;1.70;;
41343;SDS011;27089;50.022;7.604;2023-08-08T00:26:04;3.33;;;1.90;;
41343;SDS011;27089;50.022;7.604;2023-08-08T00:28:31;2.50;;;1.90;;
41343;SDS011;27089;50.022;7.604;2023-08-08T00:30:58;3.77;;;2.10;;
41343;SDS011;27089;50.022;7.604;2023-08-08T00:33:26;3.77;;;2.00;;
41343;SDS011;27089;50.022;7.604;2023-08-08T00:35:53;3.13;;;1.90;;
41343;SDS011;27089;50.022;7.604;2023-08-08T00:38:20;3.03;;;2.07;;
41343;SDS011;27089;50.022;7.604;2023-08-08T00:40:47;3.00;;;2.00;;
41343;SDS011;27089;50.022;7.604;2023-08-08T00:43:14;3.67;;;2.00;;
41343;SDS011;27089;50.022;7.604;2023-08-08T00:45:41;2.80;;;1.97;;
41343;SDS011;27089;50.022;7.604;2023-08-08T00:48:09;4.30;;;2.20;;
41343;SDS011;27089;50.022;7.604;2023-08-08T00:50:41;2.43;;;1.97;;
41343;SDS011;27089;50.022;7.604;2023-08-08T00:53:09;2.87;;;2.37;;
41343;SDS011;27089;50.022;7.604;2023-08-08T00:55:36;3.33;;;1.93;;
41343;SDS011;27089;50.022;7.604;2023-08-08T00:58:03;2.00;;;1.70;;
41343;SDS011;27089;50.022;7.604;2023-08-08T01:00:30;3.10;;;2.03;;
41343;SDS011;27089;50.022;7.604;2023-08-08T01:02:58;2.93;;;1.73;;
41343;SDS011;27089;50.022;7.604;2023-08-08T01:05:25;3.83;;;1.90;;
41343;SDS011;27089;50.022;7.604;2023-08-08T01:08:02;2.53;;;2.10;;
41343;SDS011;27089;50.022;7.604;2023-08-08T01:10:33;2.50;;;1.90;;
41343;SDS011;27089;50.022;7.604;2023-08-08T01:13:04;2.10;;;1.87;;
41343;SDS011;27089;50.022;7.604;2023-08-08T01:15:35;5.73;;;2.40;;
41343;SDS011;27089;50.022;7.604;2023-08-08T01:18:03;3.93;;;2.30;;
41343;SDS011;27089;50.022;7.604;2023-08-08T01:20:32;2.73;;;1.97;;
41343;SDS011;27089;50.022;7.604;2023-08-08T01:23:03;2.50;;;2.00;;
41343;SDS011;27089;50.022;7.604;2023-08-08T01:25:38;3.27;;;1.90;;
41343;SDS011;27089;50.022;7.604;2023-08-08T01:28:06;2.50;;;1.80;;
41343;SDS011;27089;50.022;7.604;2023-08-08T01:30:33;2.47;;;1.63;;
41343;SDS011;27089;50.022;7.604;2023-08-08T01:33:01;2.80;;;1.93;;
41343;SDS011;27089;50.022;7.604;2023-08-08T01:35:28;2.23;;;2.03;;
41343;SDS011;27089;50.022;7.604;2023-08-08T01:37:58;3.73;;;2.03;;
41343;SDS011;27089;50.022;7.604;2023-08-08T01:40:31;2.90;;;1.93;;
41343;SDS011;27089;50.022;7.604;2023-08-08T01:43:00;2.10;;;1.90;;
41343;SDS011;27089;50.022;7.604;2023-08-08T01:45:29;3.80;;;2.17;;
41343;SDS011;27089;50.022;7.604;2023-08-08T01:47:56;2.47;;;2.10;;
41343;SDS011;27089;50.022;7.604;2023-08-08T01:50:23;2.40;;;1.80;;
41343;SDS011;27089;50.022;7.604;2023-08-08T01:52:50;2.63;;;1.90;;
41343;SDS011;27089;50.022;7.604;2023-08-08T01:55:18;2.80;;;1.97;;
41343;SDS011;27089;50.022;7.604;2023-08-08T01:57:45;2.40;;;1.97;;
41343;SDS011;27089;50.022;7.604;2023-08-08T02:00:13;3.47;;;2.10;;
41343;SDS011;27089;50.022;7.604;2023-08-08T02:02:40;4.37;;;2.17;;
41343;SDS011;27089;50.022;7.604;2023-08-08T02:05:07;2.77;;;2.00;;
41343;SDS011;27089;50.022;7.604;2023-08-08T02:07:34;2.63;;;1.77;;
41343;SDS011;27089;50.022;7.604;2023-08-08T02:10:01;4.53;;;2.37;;
41343;SDS011;27089;50.022;7.604;2023-08-08T02:12:28;3.97;;;1.93;;
41343;SDS011;27089;50.022;7.604;2023-08-08T02:14:55;3.03;;;1.80;;
41343;SDS011;27089;50.022;7.604;2023-08-08T02:17:24;2.40;;;1.80;;
41343;SDS011;27089;50.022;7.604;2023-08-08T02:19:51;3.63;;;2.00;;
41343;SDS011;27089;50.022;7.604;2023-08-08T02:22:19;3.73;;;2.23;;
41343;SDS011;27089;50.022;7.604;2023-08-08T02:24:46;2.47;;;2.17;;
41343;SDS011;27089;50.022;7.604;2023-08-08T02:27:13;2.20;;;2.00;;
41343;SDS011;27089;50.022;7.604;2023-08-08T02:29:40;2.37;;;2.13;;
41343;SDS011;27089;50.022;7.604;2023-08-08T02:32:07;3.47;;;2.27;;
41343;SDS011;27089;50.022;7.604;2023-08-08T02:34:35;2.63;;;2.17;;
41343;SDS011;27089;50.022;7.604;2023-08-08T02:37:03;3.97;;;2.30;;
41343;SDS011;27089;50.022;7.604;2023-08-08T02:39:30;3.40;;;2.10;;
41343;SDS011;27089;50.022;7.604;2023-08-08T02:41:57;3.17;;;2.23;;
41343;SDS011;27089;50.022;7.604;2023-08-08T02:44:24;4.47;;;1.80;;
41343;SDS011;27089;50.022;7.604;2023-08-08T02:46:51;4.03;;;2.07;;
41343;SDS011;27089;50.022;7.604;2023-08-08T02:49:18;2.57;;;2.13;;
41343;SDS011;27089;50.022;7.604;2023-08-08T02:51:47;2.17;;;1.90;;
41343;SDS011;27089;50.022;7.604;2023-08-08T02:54:14;2.20;;;1.80;;
41343;SDS011;27089;50.022;7.604;2023-08-08T02:56:41;4.37;;;2.20;;
41343;SDS011;27089;50.022;7.604;2023-08-08T02:59:08;3.53;;;2.40;;
41343;SDS011;27089;50.022;7.604;2023-08-08T03:01:35;3.83;;;2.10;;
41343;SDS011;27089;50.022;7.604;2023-08-08T03:04:04;3.80;;;2.33;;
41343;SDS011;27089;50.022;7.604;2023-08-08T03:06:31;2.37;;;1.80;;
41343;SDS011;27089;50.022;7.604;2023-08-08T03:09:00;2.37;;;2.00;;
41343;SDS011;27089;50.022;7.604;2023-08-08T03:11:27;3.60;;;2.20;;
41343;SDS011;27089;50.022;7.604;2023-08-08T03:13:54;2.80;;;2.20;;
41343;SDS011;27089;50.022;7.604;2023-08-08T03:16:21;3.07;;;1.93;;
41343;SDS011;27089;50.022;7.604;2023-08-08T03:18:49;2.33;;;2.00;;
41343;SDS011;27089;50.022;7.604;2023-08-08T03:21:16;2.73;;;2.20;;
41343;SDS011;27089;50.022;7.604;2023-08-08T03:23:43;3.07;;;2.37;;
41343;SDS011;27089;50.022;7.604;2023-08-08T03:26:12;4.43;;;2.03;;
41343;SDS011;27089;50.022;7.604;2023-08-08T03:28:39;3.37;;;2.20;;
41343;SDS011;27089;50.022;7.604;2023-08-08T03:31:06;3.30;;;2.20;;
41343;SDS011;27089;50.022;7.604;2023-08-08T03:33:33;3.80;;;2.40;;
41343;SDS011;27089;50.022;7.604;2023-08-08T03:36:00;4.47;;;2.27;;
41343;SDS011;27089;50.022;7.604;2023-08-08T03:38:27;3.77;;;2.10;;
41343;SDS011;27089;50.022;7.604;2023-08-08T03:40:54;3.23;;;1.90;;
41343;SDS011;27089;50.022;7.604;2023-08-08T03:43:22;2.00;;;1.80;;
41343;SDS011;27089;50.022;7.604;2023-08-08T03:45:49;3.80;;;1.90;;
41343;SDS011;27089;50.022;7.604;2023-08-08T03:48:16;4.23;;;2.00;;
41343;SDS011;27089;50.022;7.604;2023-08-08T03:50:43;2.63;;;2.40;;
41343;SDS011;27089;50.022;7.604;2023-08-08T03:53:11;4.50;;;2.60;;
41343;SDS011;27089;50.022;7.604;2023-08-08T03:55:38;3.07;;;2.77;;
41343;SDS011;27089;50.022;7.604;2023-08-08T03:58:05;9.60;;;3.13;;
41343;SDS011;27089;50.022;7.604;2023-08-08T04:00:33;3.77;;;3.00;;
41343;SDS011;27089;50.022;7.604;2023-08-08T04:03:01;4.13;;;2.87;;
41343;SDS011;27089;50.022;7.604;2023-08-08T04:05:28;4.03;;;2.73;;
41343;SDS011;27089;50.022;7.604;2023-08-08T04:07:55;11.47;;;3.30;;
41343;SDS011;27089;50.022;7.604;2023-08-08T04:10:22;4.17;;;2.87;;
41343;SDS011;27089;50.022;7.604;2023-08-08T04:12:49;5.60;;;3.00;;
41343;SDS011;27089;50.022;7.604;2023-08-08T04:15:16;3.40;;;2.40;;
41343;SDS011;27089;50.022;7.604;2023-08-08T04:17:44;5.03;;;2.73;;
41343;SDS011;27089;50.022;7.604;2023-08-08T04:20:11;3.20;;;2.80;;
41343;SDS011;27089;50.022;7.604;2023-08-08T04:22:39;3.53;;;2.60;;
41343;SDS011;27089;50.022;7.604;2023-08-08T04:25:06;3.90;;;2.43;;
41343;SDS011;27089;50.022;7.604;2023-08-08T04:27:34;3.13;;;2.30;;
41343;SDS011;27089;50.022;7.604;2023-08-08T04:30:01;3.83;;;2.97;;
41343;SDS011;27089;50.022;7.604;2023-08-08T04:32:28;4.00;;;2.60;;
41343;SDS011;27089;50.022;7.604;2023-08-08T04:34:57;4.27;;;2.83;;
41343;SDS011;27089;50.022;7.604;2023-08-08T04:37:23;4.77;;;2.47;;
41343;SDS011;27089;50.022;7.604;2023-08-08T04:39:50;4.40;;;2.50;;
41343;SDS011;27089;50.022;7.604;2023-08-08T04:42:17;3.57;;;2.80;;
41343;SDS011;27089;50.022;7.604;2023-08-08T04:44:44;5.43;;;2.63;;
41343;SDS011;27089;50.022;7.604;2023-08-08T04:47:11;2.50;;;2.30;;
41343;SDS011;27089;50.022;7.604;2023-08-08T04:49:38;4.77;;;2.43;;
41343;SDS011;27089;50.022;7.604;2023-08-08T04:52:07;4.50;;;2.47;;
41343;SDS011;27089;50.022;7.604;2023-08-08T04:54:34;4.27;;;2.50;;
41343;SDS011;27089;50.022;7.604;2023-08-08T04:57:01;2.87;;;2.33;;
41343;SDS011;27089;50.022;7.604;2023-08-08T04:59:28;3.97;;;2.23;;
41343;SDS011;27089;50.022;7.604;2023-08-08T05:01:55;4.40;;;2.47;;
41343;SDS011;27089;50.022;7.604;2023-08-08T05:04:21;4.03;;;2.27;;
41343;SDS011;27089;50.022;7.604;2023-08-08T05:06:48;5.10;;;2.70;;
41343;SDS011;27089;50.022;7.604;2023-08-08T05:09:17;2.50;;;2.30;;
41343;SDS011;27089;50.022;7.604;2023-08-08T05:11:45;4.43;;;2.57;;
41343;SDS011;27089;50.022;7.604;2023-08-08T05:14:12;3.17;;;2.27;;
41343;SDS011;27089;50.022;7.604;2023-08-08T05:16:39;3.00;;;2.33;;
41343;SDS011;27089;50.022;7.604;2023-08-08T05:19:06;3.83;;;2.07;;
41343;SDS011;27089;50.022;7.604;2023-08-08T05:21:34;5.03;;;2.10;;
41343;SDS011;27089;50.022;7.604;2023-08-08T05:24:01;4.57;;;2.40;;
41343;SDS011;27089;50.022;7.604;2023-08-08T05:26:30;2.90;;;2.10;;
41343;SDS011;27089;50.022;7.604;2023-08-08T05:28:57;4.83;;;2.40;;
41343;SDS011;27089;50.022;7.604;2023-08-08T05:31:24;2.83;;;1.93;;
41343;SDS011;27089;50.022;7.604;2023-08-08T05:33:51;4.40;;;2.37;;
41343;SDS011;27089;50.022;7.604;2023-08-08T05:36:18;2.33;;;1.80;;
41343;SDS011;27089;50.022;7.604;2023-08-08T05:38:45;2.97;;;1.60;;
41343;SDS011;27089;50.022;7.604;2023-08-08T05:41:12;3.90;;;1.50;;
41343;SDS011;27089;50.022;7.604;2023-08-08T05:43:40;4.83;;;1.83;;
41343;SDS011;27089;50.022;7.604;2023-08-08T05:46:07;3.80;;;3.00;;
41343;SDS011;27089;50.022;7.604;2023-08-08T05:48:34;5.15;;;2.50;;
41343;SDS011;27089;50.022;7.604;2023-08-08T05:51:01;2.72;;;1.42;;
41343;SDS011;27089;50.022;7.604;2023-08-08T05:53:30;2.42;;;1.30;;
41343;SDS011;27089;50.022;7.604;2023-08-08T05:55:57;3.13;;;1.20;;
41343;SDS011;27089;50.022;7.604;2023-08-08T05:58:24;3.55;;;1.23;;
41343;SDS011;27089;50.022;7.604;2023-08-08T06:00:52;3.28;;;1.70;;
41343;SDS011;27089;50.022;7.604;2023-08-08T06:03:19;3.70;;;1.73;;
41343;SDS011;27089;50.022;7.604;2023-08-08T06:05:46;4.63;;;2.45;;
41343;SDS011;27089;50.022;7.604;2023-08-08T06:08:13;3.75;;;1.90;;
41343;SDS011;27089;50.022;7.604;2023-08-08T06:10:41;5.03;;;2.85;;
41343;SDS011;27089;50.022;7.604;2023-08-08T06:13:09;4.80;;;3.35;;
41343;SDS011;27089;50.022;7.604;2023-08-08T06:15:36;4.47;;;2.13;;
41343;SDS011;27089;50.022;7.604;2023-08-08T06:18:04;4.75;;;3.35;;
41343;SDS011;27089;50.022;7.604;2023-08-08T06:20:31;2.80;;;2.15;;
41343;SDS011;27089;50.022;7.604;2023-08-08T06:22:58;5.03;;;2.65;;
41343;SDS011;27089;50.022;7.604;2023-08-08T06:25:25;4.35;;;1.85;;
41343;SDS011;27089;50.022;7.604;2023-08-08T06:27:53;4.28;;;2.13;;
41343;SDS011;27089;50.022;7.604;2023-08-08T06:30:20;5.68;;;2.00;;
41343;SDS011;27089;50.022;7.604;2023-08-08T06:32:47;2.70;;;2.05;;
41343;SDS011;27089;50.022;7.604;2023-08-08T06:35:15;2.53;;;1.92;;
41343;SDS011;27089;50.022;7.604;2023-08-08T06:37:43;3.38;;;1.70;;
41343;SDS011;27089;50.022;7.604;2023-08-08T06:40:10;7.85;;;3.80;;
41343;SDS011;27089;50.022;7.604;2023-08-08T06:42:38;2.28;;;1.30;;
41343;SDS011;27089;50.022;7.604;2023-08-08T06:45:05;3.65;;;1.95;;
41343;SDS011;27089;50.022;7.604;2023-08-08T06:47:34;5.53;;;2.00;;
41343;SDS011;27089;50.022;7.604;2023-08-08T06:50:01;2.67;;;1.73;;
41343;SDS011;27089;50.022;7.604;2023-08-08T06:52:34;2.53;;;1.30;;
41343;SDS011;27089;50.022;7.604;2023-08-08T06:55:01;3.85;;;1.60;;
41343;SDS011;27089;50.022;7.604;2023-08-08T06:57:29;4.80;;;2.20;;
41343;SDS011;27089;50.022;7.604;2023-08-08T06:59:59;2.78;;;1.40;;
41343;SDS011;27089;50.022;7.604;2023-08-08T07:02:26;2.70;;;1.35;;
41343;SDS011;27089;50.022;7.604;2023-08-08T07:04:53;3.25;;;1.30;;
41343;SDS011;27089;50.022;7.604;2023-08-08T07:07:20;7.35;;;3.00;;
41343;SDS011;27089;50.022;7.604;2023-08-08T07:09:48;5.55;;;1.88;;
41343;SDS011;27089;50.022;7.604;2023-08-08T07:12:15;3.83;;;1.88;;
41343;SDS011;27089;50.022;7.604;2023-08-08T07:14:42;4.22;;;1.30;;
41343;SDS011;27089;50.022;7.604;2023-08-08T07:17:09;4.25;;;2.78;;
41343;SDS011;27089;50.022;7.604;2023-08-08T07:19:36;3.97;;;1.50;;
41343;SDS011;27089;50.022;7.604;2023-08-08T07:22:03;2.58;;;1.35;;
41343;SDS011;27089;50.022;7.604;2023-08-08T07:24:30;1.98;;;1.05;;
41343;SDS011;27089;50.022;7.604;2023-08-08T07:26:59;2.53;;;1.23;;
41343;SDS011;27089;50.022;7.604;2023-08-08T07:29:26;1.52;;;0.93;;
41343;SDS011;27089;50.022;7.604;2023-08-08T07:31:53;2.88;;;1.30;;
41343;SDS011;27089;50.022;7.604;2023-08-08T07:34:20;3.53;;;1.20;;
41343;SDS011;27089;50.022;7.604;2023-08-08T07:36:47;4.28;;;1.50;;
41343;SDS011;27089;50.022;7.604;2023-08-08T07:39:14;2.45;;;1.40;;
41343;SDS011;27089;50.022;7.604;2023-08-08T07:41:41;3.08;;;1.50;;
41343;SDS011;27089;50.022;7.604;2023-08-08T07:44:10;3.83;;;1.88;;
41343;SDS011;27089;50.022;7.604;2023-08-08T07:46:36;4.95;;;1.52;;
41343;SDS011;27089;50.022;7.604;2023-08-08T07:49:03;2.78;;;1.50;;
41343;SDS011;27089;50.022;7.604;2023-08-08T07:51:31;3.78;;;1.45;;
41343;SDS011;27089;50.022;7.604;2023-08-08T07:53:58;2.45;;;2.17;;
41343;SDS011;27089;50.022;7.604;2023-08-08T07:56:25;2.60;;;2.08;;
41343;SDS011;27089;50.022;7.604;2023-08-08T07:58:53;2.65;;;1.50;;
41343;SDS011;27089;50.022;7.604;2023-08-08T08:01:21;2.00;;;1.23;;
41343;SDS011;27089;50.022;7.604;2023-08-08T08:03:48;2.72;;;1.27;;
41343;SDS011;27089;50.022;7.604;2023-08-08T08:06:15;6.85;;;1.60;;
41343;SDS011;27089;50.022;7.604;2023-08-08T08:08:42;2.88;;;1.70;;
41343;SDS011;27089;50.022;7.604;2023-08-08T08:11:09;3.13;;;1.55;;
41343;SDS011;27089;50.022;7.604;2023-08-08T08:13:36;3.03;;;1.40;;
41343;SDS011;27089;50.022;7.604;2023-08-08T08:16:03;3.45;;;1.50;;
41343;SDS011;27089;50.022;7.604;2023-08-08T08:18:31;2.47;;;1.52;;
41343;SDS011;27089;50.022;7.604;2023-08-08T08:20:58;2.80;;;1.33;;
41343;SDS011;27089;50.022;7.604;2023-08-08T08:23:26;2.92;;;1.40;;
41343;SDS011;27089;50.022;7.604;2023-08-08T08:25:53;4.18;;;1.60;;
41343;SDS011;27089;50.022;7.604;2023-08-08T08:28:20;2.70;;;1.70;;
41343;SDS011;27089;50.022;7.604;2023-08-08T08:30:47;3.00;;;1.60;;
41343;SDS011;27089;50.022;7.604;2023-08-08T08:33:14;4.40;;;1.63;;
41343;SDS011;27089;50.022;7.604;2023-08-08T08:35:43;5.88;;;1.95;;
41343;SDS011;27089;50.022;7.604;2023-08-08T08:38:10;2.97;;;1.60;;
41343;SDS011;27089;50.022;7.604;2023-08-08T08:40:39;4.07;;;1.77;;
41343;SDS011;27089;50.022;7.604;2023-08-08T08:43:09;3.92;;;1.70;;
41343;SDS011;27089;50.022;7.604;2023-08-08T08:45:37;3.45;;;1.80;;
41343;SDS011;27089;50.022;7.604;2023-08-08T08:48:06;4.05;;;2.10;;
41343;SDS011;27089;50.022;7.604;2023-08-08T08:50:36;2.63;;;1.60;;
41343;SDS011;27089;50.022;7.604;2023-08-08T08:53:07;3.53;;;1.80;;
41343;SDS011;27089;50.022;7.604;2023-08-08T08:55:34;4.68;;;2.00;;
41343;SDS011;27089;50.022;7.604;2023-08-08T08:58:01;2.85;;;1.70;;
41343;SDS011;27089;50.022;7.604;2023-08-08T09:00:30;4.55;;;1.50;;
41343;SDS011;27089;50.022;7.604;2023-08-08T09:02:57;3.95;;;1.77;;
41343;SDS011;27089;50.022;7.604;2023-08-08T09:05:25;3.42;;;1.52;;
41343;SDS011;27089;50.022;7.604;2023-08-08T09:07:52;3.45;;;1.67;;
41343;SDS011;27089;50.022;7.604;2023-08-08T09:10:20;4.70;;;1.60;;
41343;SDS011;27089;50.022;7.604;2023-08-08T09:12:47;2.70;;;1.60;;
41343;SDS011;27089;50.022;7.604;2023-08-08T09:15:15;5.82;;;1.60;;
41343;SDS011;27089;50.022;7.604;2023-08-08T09:17:42;3.08;;;1.70;;
41343;SDS011;27089;50.022;7.604;2023-08-08T09:20:11;2.90;;;1.40;;
41343;SDS011;27089;50.022;7.604;2023-08-08T09:22:39;2.50;;;1.40;;
41343;SDS011;27089;50.022;7.604;2023-08-08T09:25:06;3.90;;;1.60;;
41343;SDS011;27089;50.022;7.604;2023-08-08T09:27:35;2.80;;;1.33;;
41343;SDS011;27089;50.022;7.604;2023-08-08T09:30:02;2.67;;;1.60;;
41343;SDS011;27089;50.022;7.604;2023-08-08T09:32:30;3.85;;;1.45;;
41343;SDS011;27089;50.022;7.604;2023-08-08T09:34:58;3.42;;;1.80;;
41343;SDS011;27089;50.022;7.604;2023-08-08T09:37:25;4.07;;;1.58;;
41343;SDS011;27089;50.022;7.604;2023-08-08T09:39:56;3.58;;;1.60;;
41343;SDS011;27089;50.022;7.604;2023-08-08T09:42:23;2.50;;;1.40;;
41343;SDS011;27089;50.022;7.604;2023-08-08T09:44:53;2.25;;;1.50;;
41343;SDS011;27089;50.022;7.604;2023-08-08T09:47:20;4.25;;;1.80;;
41343;SDS011;27089;50.022;7.604;2023-08-08T09:49:48;4.38;;;1.60;;
41343;SDS011;27089;50.022;7.604;2023-08-08T09:52:15;3.00;;;1.65;;
41343;SDS011;27089;50.022;7.604;2023-08-08T09:54:42;3.55;;;1.80;;
41343;SDS011;27089;50.022;7.604;2023-08-08T09:57:10;3.17;;;1.75;;
41343;SDS011;27089;50.022;7.604;2023-08-08T09:59:37;3.80;;;1.40;;
41343;SDS011;27089;50.022;7.604;2023-08-08T10:02:05;3.00;;;1.50;;
41343;SDS011;27089;50.022;7.604;2023-08-08T10:04:36;5.32;;;1.80;;
41343;SDS011;27089;50.022;7.604;2023-08-08T10:07:04;1.88;;;1.50;;
41343;SDS011;27089;50.022;7.604;2023-08-08T10:09:31;4.75;;;1.63;;
41343;SDS011;27089;50.022;7.604;2023-08-08T10:11:58;4.13;;;1.90;;
41343;SDS011;27089;50.022;7.604;2023-08-08T10:14:28;4.72;;;1.60;;
41343;SDS011;27089;50.022;7.604;2023-08-08T10:16:56;6.22;;;1.98;;
41343;SDS011;27089;50.022;7.604;2023-08-08T10:19:24;3.40;;;1.55;;
41343;SDS011;27089;50.022;7.604;2023-08-08T10:21:55;3.22;;;1.50;;
41343;SDS011;27089;50.022;7.604;2023-08-08T10:24:24;4.13;;;1.50;;
41343;SDS011;27089;50.022;7.604;2023-08-08T10:26:51;3.78;;;1.50;;
41343;SDS011;27089;50.022;7.604;2023-08-08T10:29:19;3.38;;;1.50;;
41343;SDS011;27089;50.022;7.604;2023-08-08T10:31:50;3.08;;;1.42;;
41343;SDS011;27089;50.022;7.604;2023-08-08T10:34:19;4.43;;;1.60;;
41343;SDS011;27089;50.022;7.604;2023-08-08T10:36:51;6.50;;;3.25;;
41343;SDS011;27089;50.022;7.604;2023-08-08T10:39:19;3.80;;;1.83;;
41343;SDS011;27089;50.022;7.604;2023-08-08T10:41:47;3.85;;;1.58;;
41343;SDS011;27089;50.022;7.604;2023-08-08T10:44:22;4.50;;;1.50;;
41343;SDS011;27089;50.022;7.604;2023-08-08T10:46:50;4.55;;;1.45;;
41343;SDS011;27089;50.022;7.604;2023-08-08T10:49:18;1.67;;;1.38;;
41343;SDS011;27089;50.022;7.604;2023-08-08T10:51:46;2.67;;;1.50;;
41343;SDS011;27089;50.022;7.604;2023-08-08T10:54:15;1.98;;;1.58;;
41343;SDS011;27089;50.022;7.604;2023-08-08T10:56:48;4.38;;;1.60;;
41343;SDS011;27089;50.022;7.604;2023-08-08T10:59:17;4.50;;;1.45;;
41343;SDS011;27089;50.022;7.604;2023-08-08T11:01:45;3.75;;;1.55;;
41343;SDS011;27089;50.022;7.604;2023-08-08T11:04:14;3.38;;;1.30;;
41343;SDS011;27089;50.022;7.604;2023-08-08T11:06:44;3.55;;;1.50;;
41343;SDS011;27089;50.022;7.604;2023-08-08T11:09:12;4.22;;;1.50;;
41343;SDS011;27089;50.022;7.604;2023-08-08T11:11:41;3.95;;;1.40;;
41343;SDS011;27089;50.022;7.604;2023-08-08T11:14:10;5.55;;;1.50;;
41343;SDS011;27089;50.022;7.604;2023-08-08T11:16:38;3.53;;;1.33;;
41343;SDS011;27089;50.022;7.604;2023-08-08T11:19:05;3.10;;;1.67;;
41343;SDS011;27089;50.022;7.604;2023-08-08T11:21:33;5.03;;;1.60;;
41343;SDS011;27089;50.022;7.604;2023-08-08T11:24:02;5.13;;;2.38;;
41343;SDS011;27089;50.022;7.604;2023-08-08T11:26:31;5.35;;;1.85;;
41343;SDS011;27089;50.022;7.604;2023-08-08T11:28:58;4.50;;;1.65;;
41343;SDS011;27089;50.022;7.604;2023-08-08T11:31:25;2.45;;;1.63;;
41343;SDS011;27089;50.022;7.604;2023-08-08T11:33:53;3.28;;;1.50;;
41343;SDS011;27089;50.022;7.604;2023-08-08T11:36:21;3.22;;;1.08;;
41343;SDS011;27089;50.022;7.604;2023-08-08T11:38:49;3.53;;;1.30;;
41343;SDS011;27089;50.022;7.604;2023-08-08T11:41:17;3.50;;;1.40;;
41343;SDS011;27089;50.022;7.604;2023-08-08T11:43:49;4.85;;;1.58;;
41343;SDS011;27089;50.022;7.604;2023-08-08T11:46:17;3.22;;;1.33;;
41343;SDS011;27089;50.022;7.604;2023-08-08T11:48:46;4.35;;;1.55;;
41343;SDS011;27089;50.022;7.604;2023-08-08T11:51:14;4.57;;;1.60;;
41343;SDS011;27089;50.022;7.604;2023-08-08T11:53:48;5.38;;;1.30;;
41343;SDS011;27089;50.022;7.604;2023-08-08T11:56:16;2.53;;;1.27;;
41343;SDS011;27089;50.022;7.604;2023-08-08T11:58:44;2.50;;;1.23;;
41343;SDS011;27089;50.022;7.604;2023-08-08T12:01:12;5.35;;;1.33;;
41343;SDS011;27089;50.022;7.604;2023-08-08T12:03:40;1.92;;;1.13;;
41343;SDS011;27089;50.022;7.604;2023-08-08T12:06:13;1.67;;;0.90;;
41343;SDS011;27089;50.022;7.604;2023-08-08T12:08:40;3.15;;;1.30;;
41343;SDS011;27089;50.022;7.604;2023-08-08T12:11:09;2.92;;;1.30;;
41343;SDS011;27089;50.022;7.604;2023-08-08T12:13:37;2.65;;;1.40;;
41343;SDS011;27089;50.022;7.604;2023-08-08T12:16:05;3.28;;;1.20;;
41343;SDS011;27089;50.022;7.604;2023-08-08T12:18:34;4.80;;;1.30;;
41343;SDS011;27089;50.022;7.604;2023-08-08T12:21:02;1.48;;;1.20;;
41343;SDS011;27089;50.022;7.604;2023-08-08T12:23:30;4.53;;;1.30;;
41343;SDS011;27089;50.022;7.604;2023-08-08T12:25:57;4.15;;;1.20;;
41343;SDS011;27089;50.022;7.604;2023-08-08T12:28:24;2.53;;;1.20;;
41343;SDS011;27089;50.022;7.604;2023-08-08T12:30:51;1.95;;;1.15;;
41343;SDS011;27089;50.022;7.604;2023-08-08T12:33:18;1.75;;;1.30;;
41343;SDS011;27089;50.022;7.604;2023-08-08T12:35:47;2.30;;;1.38;;
41343;SDS011;27089;50.022;7.604;2023-08-08T12:38:14;2.80;;;1.20;;
41343;SDS011;27089;50.022;7.604;2023-08-08T12:40:41;2.47;;;1.00;;
41343;SDS011;27089;50.022;7.604;2023-08-08T12:43:09;3.90;;;1.30;;
41343;SDS011;27089;50.022;7.604;2023-08-08T12:45:38;2.60;;;1.20;;
41343;SDS011;27089;50.022;7.604;2023-08-08T12:48:05;5.80;;;1.30;;
41343;SDS011;27089;50.022;7.604;2023-08-08T12:50:32;3.47;;;1.10;;
41343;SDS011;27089;50.022;7.604;2023-08-08T12:53:00;1.25;;;1.00;;
41343;SDS011;27089;50.022;7.604;2023-08-08T12:55:29;2.38;;;1.10;;
41343;SDS011;27089;50.022;7.604;2023-08-08T12:57:56;1.88;;;0.93;;
41343;SDS011;27089;50.022;7.604;2023-08-08T13:00:23;2.10;;;1.25;;
41343;SDS011;27089;50.022;7.604;2023-08-08T13:02:50;1.90;;;1.00;;
41343;SDS011;27089;50.022;7.604;2023-08-08T13:05:17;2.38;;;1.15;;
41343;SDS011;27089;50.022;7.604;2023-08-08T13:07:43;1.85;;;0.98;;
41343;SDS011;27089;50.022;7.604;2023-08-08T13:10:12;1.92;;;1.10;;
41343;SDS011;27089;50.022;7.604;2023-08-08T13:12:39;3.92;;;1.10;;
41343;SDS011;27089;50.022;7.604;2023-08-08T13:15:06;1.77;;;0.95;;
41343;SDS011;27089;50.022;7.604;2023-08-08T13:17:34;1.67;;;0.70;;
41343;SDS011;27089;50.022;7.604;2023-08-08T13:20:01;2.33;;;1.13;;
41343;SDS011;27089;50.022;7.604;2023-08-08T13:22:29;2.67;;;1.20;;
41343;SDS011;27089;50.022;7.604;2023-08-08T13:24:55;2.42;;;1.15;;
41343;SDS011;27089;50.022;7.604;2023-08-08T13:27:24;2.05;;;1.00;;
41343;SDS011;27089;50.022;7.604;2023-08-08T13:29:52;3.53;;;1.08;;
41343;SDS011;27089;50.022;7.604;2023-08-08T13:32:19;3.72;;;1.30;;
41343;SDS011;27089;50.022;7.604;2023-08-08T13:34:46;2.47;;;1.48;;
41343;SDS011;27089;50.022;7.604;2023-08-08T13:37:13;2.75;;;1.23;;
41343;SDS011;27089;50.022;7.604;2023-08-08T13:39:40;2.17;;;1.27;;
41343;SDS011;27089;50.022;7.604;2023-08-08T13:42:07;2.10;;;1.15;;
41343;SDS011;27089;50.022;7.604;2023-08-08T13:44:36;4.13;;;1.23;;
41343;SDS011;27089;50.022;7.604;2023-08-08T13:47:03;4.10;;;1.13;;
41343;SDS011;27089;50.022;7.604;2023-08-08T13:49:30;3.80;;;1.00;;
41343;SDS011;27089;50.022;7.604;2023-08-08T13:51:57;4.25;;;1.20;;
41343;SDS011;27089;50.022;7.604;2023-08-08T13:54:24;5.88;;;1.10;;
41343;SDS011;27089;50.022;7.604;2023-08-08T13:56:51;2.67;;;1.20;;
41343;SDS011;27089;50.022;7.604;2023-08-08T13:59:18;3.72;;;1.02;;
41343;SDS011;27089;50.022;7.604;2023-08-08T14:01:46;2.53;;;1.17;;
41343;SDS011;27089;50.022;7.604;2023-08-08T14:04:13;2.65;;;1.30;;
41343;SDS011;27089;50.022;7.604;2023-08-08T14:06:40;2.88;;;1.13;;
41343;SDS011;27089;50.022;7.604;2023-08-08T14:09:07;3.08;;;1.15;;
41343;SDS011;27089;50.022;7.604;2023-08-08T14:11:34;3.55;;;1.30;;
41343;SDS011;27089;50.022;7.604;2023-08-08T14:14:01;2.75;;;1.20;;
41343;SDS011;27089;50.022;7.604;2023-08-08T14:16:28;3.53;;;1.33;;
41343;SDS011;27089;50.022;7.604;2023-08-08T14:18:57;4.20;;;1.27;;
41343;SDS011;27089;50.022;7.604;2023-08-08T14:21:24;1.63;;;1.13;;
41343;SDS011;27089;50.022;7.604;2023-08-08T14:23:51;3.85;;;1.40;;
41343;SDS011;27089;50.022;7.604;2023-08-08T14:26:18;3.72;;;1.35;;
41343;SDS011;27089;50.022;7.604;2023-08-08T14:28:45;4.25;;;1.30;;
41343;SDS011;27089;50.022;7.604;2023-08-08T14:31:12;3.42;;;1.10;;
41343;SDS011;27089;50.022;7.604;2023-08-08T14:33:39;3.45;;;1.48;;
41343;SDS011;27089;50.022;7.604;2023-08-08T14:36:07;3.05;;;1.52;;
41343;SDS011;27089;50.022;7.604;2023-08-08T14:38:34;3.17;;;1.40;;
41343;SDS011;27089;50.022;7.604;2023-08-08T14:41:02;2.92;;;1.48;;
41343;SDS011;27089;50.022;7.604;2023-08-08T14:43:29;2.78;;;1.55;;
41343;SDS011;27089;50.022;7.604;2023-08-08T14:45:56;3.97;;;1.50;;
41343;SDS011;27089;50.022;7.604;2023-08-08T14:48:23;3.85;;;1.40;;
41343;SDS011;27089;50.022;7.604;2023-08-08T14:50:50;2.78;;;1.42;;